createdAt,value
2023-04-02T00:01:37.855Z,3.72
2023-04-02T00:06:45.167Z,3.30
2023-04-02T00:11:50.825Z,4.97
2023-04-02T00:16:54.366Z,4.57
2023-04-02T00:21:58.584Z,2.50
2023-04-02T00:27:02.650Z,3.80
2023-04-02T00:32:05.650Z,3.40
2023-04-02T00:37:09.074Z,3.80
2023-04-02T00:42:14.109Z,2.58
2023-04-02T00:47:20.196Z,2.53
2023-04-02T00:52:25.833Z,2.67
2023-04-02T00:57:29.987Z,2.95
2023-04-02T01:02:34.124Z,3.10
2023-04-02T01:07:58.137Z,3.53
2023-04-02T01:13:09.762Z,3.35
2023-04-02T01:18:21.820Z,5.07
2023-04-02T01:23:29.569Z,3.15
2023-04-02T01:28:47.260Z,2.90
2023-04-02T01:33:50.089Z,3.20
2023-04-02T01:38:58.708Z,2.90
2023-04-02T01:44:04.612Z,3.40
2023-04-02T01:49:13.883Z,2.10
2023-04-02T01:54:18.001Z,3.05
2023-04-02T01:59:22.911Z,2.70
2023-04-02T02:04:31.049Z,2.28
2023-04-02T02:09:35.575Z,2.63
2023-04-02T02:14:40.172Z,2.42
2023-04-02T02:19:45.219Z,2.25
2023-04-02T02:24:48.095Z,2.22
2023-04-02T02:29:54.663Z,2.60
2023-04-02T02:35:01.946Z,1.60
2023-04-02T02:40:10.848Z,2.33
2023-04-02T02:45:19.074Z,2.70
2023-04-02T02:50:24.508Z,1.90
2023-04-02T02:55:32.063Z,2.58
2023-04-02T03:00:58.614Z,1.90
2023-04-02T03:06:05.290Z,3.20
2023-04-02T03:11:13.603Z,3.00
2023-04-02T03:16:22.060Z,3.13
2023-04-02T03:21:29.426Z,1.85
2023-04-02T03:26:35.810Z,4.22
2023-04-02T03:31:44.887Z,2.38
2023-04-02T03:36:53.647Z,1.70
2023-04-02T03:41:59.187Z,3.47
2023-04-02T03:47:06.680Z,2.58
2023-04-02T03:52:12.729Z,2.88
2023-04-02T03:57:24.854Z,2.20
2023-04-02T04:02:36.514Z,3.40
2023-04-02T04:07:41.371Z,3.40
2023-04-02T04:12:47.711Z,1.63
2023-04-02T04:18:02.023Z,4.47
2023-04-02T04:23:12.334Z,3.53
2023-04-02T04:28:22.164Z,3.15
2023-04-02T04:33:34.524Z,2.63
2023-04-02T04:38:44.256Z,2.70
2023-04-02T04:43:53.692Z,1.70
2023-04-02T04:49:03.149Z,1.63
2023-04-02T04:54:12.284Z,1.70
2023-04-02T04:59:19.760Z,2.63
2023-04-02T05:04:26.776Z,1.80
2023-04-02T05:09:33.645Z,3.15
2023-04-02T05:14:39.576Z,2.60
2023-04-02T05:19:47.412Z,2.78
2023-04-02T05:24:58.520Z,2.30
2023-04-02T05:30:08.515Z,5.35
2023-04-02T05:35:18.298Z,5.63
2023-04-02T05:40:24.541Z,2.88
2023-04-02T05:45:31.502Z,4.57
2023-04-02T05:50:43.064Z,2.53
2023-04-02T05:55:54.672Z,5.75
2023-04-02T06:01:03.941Z,3.55
2023-04-02T06:06:15.478Z,2.30
2023-04-02T06:11:20.824Z,1.75
2023-04-02T06:16:27.694Z,1.75
2023-04-02T06:21:32.777Z,3.30
2023-04-02T06:26:38.097Z,2.63
2023-04-02T06:31:48.326Z,1.90
2023-04-02T06:36:56.941Z,1.90
2023-04-02T06:42:02.833Z,3.88
2023-04-02T06:47:31.393Z,2.90
2023-04-02T06:52:37.651Z,1.92
2023-04-02T06:57:43.110Z,1.88
2023-04-02T07:02:47.235Z,1.92
2023-04-02T07:07:51.842Z,5.65
2023-04-02T07:12:54.785Z,2.60
2023-04-02T07:17:59.670Z,4.22
2023-04-02T07:23:05.020Z,8.48
2023-04-02T07:28:07.726Z,16.08
2023-04-02T07:39:28.850Z,24.15
2023-04-02T07:44:31.498Z,31.70
2023-04-02T07:49:34.230Z,16.48
2023-04-02T07:54:38.427Z,22.85
2023-04-02T07:59:41.293Z,28.92
2023-04-02T08:04:44.024Z,29.73
2023-04-02T08:09:48.089Z,15.20
2023-04-02T08:14:50.783Z,15.70
2023-04-02T08:19:55.039Z,17.67
2023-04-02T08:25:43.326Z,19.75
2023-04-02T08:30:46.343Z,18.52
2023-04-02T08:35:50.470Z,16.05
2023-04-02T08:40:57.600Z,18.15
2023-04-02T08:46:08.682Z,21.02
2023-04-02T08:51:20.958Z,22.35
2023-04-02T08:56:30.543Z,19.60
2023-04-02T09:01:41.462Z,25.75
2023-04-02T09:06:44.757Z,12.85
2023-04-02T09:11:53.283Z,25.17
2023-04-02T09:16:57.485Z,22.05
2023-04-02T09:22:06.960Z,32.75
2023-04-02T09:27:19.367Z,40.88
2023-04-02T09:32:41.484Z,30.65
2023-04-02T09:37:45.173Z,32.15
2023-04-02T09:42:49.191Z,36.08
2023-04-02T09:47:53.521Z,36.05
2023-04-02T09:52:56.369Z,13.93
2023-04-02T09:58:13.564Z,19.48
2023-04-02T10:03:22.791Z,24.42
2023-04-02T10:08:28.122Z,18.73
2023-04-02T10:13:36.015Z,22.58
2023-04-02T10:18:42.776Z,23.08
2023-04-02T10:23:45.474Z,16.48
2023-04-02T10:29:06.965Z,17.75
2023-04-02T10:34:13.957Z,16.80
2023-04-02T10:39:19.756Z,17.90
2023-04-02T10:44:52.625Z,14.88
2023-04-02T10:50:05.870Z,14.40
2023-04-02T10:55:16.114Z,15.02
2023-04-02T11:00:24.118Z,14.27
2023-04-02T11:05:32.176Z,9.68
2023-04-02T11:10:36.598Z,15.10
2023-04-02T11:15:40.847Z,12.57
2023-04-02T11:20:59.117Z,12.00
2023-04-02T11:26:34.013Z,13.27
2023-04-02T11:31:38.821Z,13.10
2023-04-02T11:37:01.418Z,12.63
2023-04-02T11:42:06.804Z,10.30
2023-04-02T11:47:21.413Z,10.75
2023-04-02T11:52:27.608Z,11.05
2023-04-02T11:57:48.368Z,13.45
2023-04-02T12:03:03.389Z,13.15
2023-04-02T12:08:18.818Z,11.38
2023-04-02T12:13:22.095Z,16.00
2023-04-02T12:18:26.479Z,15.40
2023-04-02T12:23:31.287Z,11.43
2023-04-02T12:28:37.946Z,13.30
2023-04-02T12:33:42.762Z,9.77
2023-04-02T12:38:46.867Z,14.48
2023-04-02T12:43:58.287Z,10.98
2023-04-02T12:49:06.150Z,13.32
2023-04-02T12:54:14.392Z,11.85
2023-04-02T12:59:28.741Z,12.98
2023-04-02T13:04:32.770Z,10.63
2023-04-02T13:09:37.301Z,10.23
2023-04-02T13:14:40.043Z,12.45
2023-04-02T13:19:44.154Z,7.57
2023-04-02T13:24:46.857Z,14.88
2023-04-02T13:29:49.550Z,12.77
2023-04-02T13:34:53.568Z,13.32
2023-04-02T13:39:56.229Z,12.55
2023-04-02T13:44:58.908Z,10.07
2023-04-02T13:50:03.114Z,17.00
2023-04-02T13:55:06.817Z,16.55
2023-04-02T14:00:11.303Z,13.38
2023-04-02T14:05:26.579Z,13.82
2023-04-02T14:10:38.331Z,15.07
2023-04-02T14:15:52.718Z,12.27
2023-04-02T14:21:22.313Z,13.20
2023-04-02T14:26:30.687Z,12.10
2023-04-02T14:31:36.169Z,15.88
2023-04-02T14:36:48.509Z,16.58
2023-04-02T14:41:54.280Z,16.67
2023-04-02T14:47:00.682Z,16.42
2023-04-02T14:52:06.246Z,18.42
2023-04-02T14:57:16.793Z,11.90
2023-04-02T15:02:23.665Z,18.83
2023-04-02T15:07:34.730Z,18.15
2023-04-02T15:12:39.984Z,12.35
2023-04-02T15:17:42.816Z,14.25
2023-04-02T15:22:58.313Z,15.65
2023-04-02T15:28:12.470Z,14.48
2023-04-02T15:33:42.843Z,13.43
2023-04-02T15:38:49.435Z,8.48
2023-04-02T15:44:00.064Z,11.07
2023-04-02T15:49:19.968Z,12.45
2023-04-02T15:54:52.866Z,12.77
2023-04-02T16:00:16.573Z,8.52
2023-04-02T16:05:23.843Z,8.90
2023-04-02T16:10:41.083Z,12.10
2023-04-02T16:15:50.584Z,11.05
2023-04-02T16:20:54.327Z,9.90
2023-04-02T16:26:03.600Z,7.65
2023-04-02T16:31:09.393Z,9.60
2023-04-02T16:36:21.425Z,6.97
2023-04-02T16:41:38.528Z,9.82
2023-04-02T16:46:48.943Z,10.05
2023-04-02T16:51:59.729Z,7.35
2023-04-02T16:57:17.875Z,11.07
2023-04-02T17:02:28.143Z,8.43
2023-04-02T17:07:35.585Z,6.35
2023-04-02T17:12:44.482Z,6.70
2023-04-02T17:17:47.150Z,6.32
2023-04-02T17:22:50.313Z,8.48
2023-04-02T17:27:56.794Z,9.32
2023-04-02T17:32:59.614Z,8.15
2023-04-02T17:38:08.493Z,8.63
2023-04-02T17:43:19.243Z,5.60
2023-04-02T17:48:27.825Z,9.05
2023-04-02T17:53:41.061Z,7.65
2023-04-02T17:58:54.151Z,9.70
2023-04-02T18:04:08.679Z,10.05
2023-04-02T18:09:22.793Z,7.05
2023-04-02T18:14:44.215Z,10.75
2023-04-02T18:19:51.705Z,8.93
2023-04-02T18:25:17.428Z,10.88
2023-04-02T18:30:28.129Z,7.10
2023-04-02T18:35:34.238Z,8.13
2023-04-02T18:40:43.293Z,5.85
2023-04-02T18:45:53.444Z,7.85
2023-04-02T18:50:56.308Z,9.75
2023-04-02T18:56:01.475Z,10.02
2023-04-02T19:01:07.180Z,8.70
2023-04-02T19:06:11.310Z,10.38
2023-04-02T19:11:16.908Z,7.82
2023-04-02T19:16:56.216Z,9.10
2023-04-02T19:22:14.588Z,10.32
2023-04-02T19:27:24.572Z,22.02
2023-04-02T19:32:34.629Z,10.35
2023-04-02T19:37:41.158Z,11.70
2023-04-02T19:42:45.847Z,12.20
2023-04-02T19:47:49.979Z,11.82
2023-04-02T19:52:52.708Z,15.52
2023-04-02T19:58:04.462Z,11.80
2023-04-02T20:03:19.413Z,11.57
2023-04-02T20:08:27.776Z,10.85
2023-04-02T20:13:30.557Z,11.68
2023-04-02T20:18:36.955Z,12.77
2023-04-02T20:23:39.792Z,10.48
2023-04-02T20:28:42.478Z,13.30
2023-04-02T20:33:47.931Z,10.93
2023-04-02T20:38:51.828Z,10.95
2023-04-02T20:43:54.512Z,11.10
2023-04-02T20:48:58.612Z,13.60
2023-04-02T20:54:01.769Z,9.55
2023-04-02T20:59:04.539Z,9.88
2023-04-02T21:04:09.076Z,10.10
2023-04-02T21:15:53.673Z,9.60
2023-04-02T21:21:02.290Z,11.20
2023-04-02T21:26:06.512Z,11.85
2023-04-02T21:31:11.428Z,8.75
2023-04-02T21:36:16.574Z,9.30
2023-04-02T21:41:21.290Z,9.82
2023-04-02T21:46:26.038Z,9.23
2023-04-02T21:51:31.384Z,8.43
2023-04-02T21:56:35.578Z,8.50
2023-04-02T22:01:40.043Z,8.60
2023-04-02T22:06:44.511Z,8.18
2023-04-02T22:11:49.404Z,9.85
2023-04-02T22:16:52.804Z,7.97
2023-04-02T22:21:57.314Z,7.15
2023-04-02T22:27:00.185Z,9.05
2023-04-02T22:32:02.973Z,7.38
2023-04-02T22:37:07.104Z,8.45
2023-04-02T22:42:09.926Z,7.72
2023-04-02T22:47:12.723Z,10.85
2023-04-02T22:52:16.787Z,12.10
2023-04-02T22:57:19.747Z,7.90
2023-04-02T23:02:22.624Z,7.22
2023-04-02T23:07:27.248Z,10.13
2023-04-02T23:12:29.984Z,8.80
2023-04-02T23:17:32.684Z,8.90
2023-04-02T23:22:37.739Z,8.82
2023-04-02T23:27:40.499Z,10.20
2023-04-02T23:32:43.249Z,7.78
2023-04-02T23:37:49.543Z,7.68
2023-04-02T23:42:52.311Z,8.50
2023-04-02T23:47:55.259Z,8.75
2023-04-02T23:52:59.321Z,7.45
2023-04-02T23:58:02.041Z,7.65
